Hico, West Virginia
Current Conditions -  °F | °C
As of 10:51 AM on Sunday 23 Nov 2014 (Local Time) from KBKW Reporting Station
Clear Clear  
Wind Chill: 11°   Ceiling: Unl
Heat Index: 11°   Visibility: 10mi
Dew Point:   Wind: 10mph
Humidity: 56%   Direction: 160°SSE
Pressure: 30.09"   Gusts: 20mph
Location:  38.12°N, 81.01°W
Report Text: KBKW 231551Z AUTO 16009G17KT 10SM CLR 11/02 A3009 RMK AO2 SLP191 T01060022
Loading
Personal Weather Stations






























Interactive Weather Map New forecast layout! Learn more

10-Day Weather Forecast

Advertisements
Track Severe Weather on mobile